Kearney, Arkansas
Current Conditions -  °F | °C
As of 6:53 AM on Monday 20 Oct 2014 (Local Time) from KLIT Reporting Station
Scattered Clouds Scattered Clouds  
Wind Chill: 50°   Ceiling: Unl
Heat Index: 50°   Visibility: 10mi
Dew Point: 45°   Wind: 3mph
Humidity: 83%   Direction: 230°SW
Pressure: 30.09"   Gusts: NA
Location:  34.4462°N, 92.1621°W
Report Text: KLIT 201153Z 23003KT 10SM SCT120 10/07 A3009 RMK AO2 SLP190 T01000072 10111 20094 53005
Loading
Personal Weather Stations






























Interactive Weather Map
Tropical Storm Tracking
New forecast layout! Learn more

10-Day Weather Forecast

Advertisements
Track Severe Weather on mobile